Austin (LCRA Redbud)'s Hourly Summary for Thursday, July 5, 2018
Hour Temp
(f)
RH
(%)
Solar Rad.
(MJ/m2)
Rainfall
(in)
Wind
(mph)
7/5/2018 12:00 AM 72 91 0 0 0.64
7/5/2018 1:00 AM 71 90 0 0 0.19
7/5/2018 2:00 AM 71 90 0 0 0.03
7/5/2018 3:00 AM 71 90 0 0 0
7/5/2018 4:00 AM 71 89 0 0 0.12
7/5/2018 5:00 AM 71 89 0 0 0.1
7/5/2018 6:00 AM 72 90 0 0 0.34
7/5/2018 7:00 AM 72 90 0.01 0 0.83
7/5/2018 8:00 AM 74 89 0.18 0 0.33
7/5/2018 9:00 AM 77 82 0.72 0 0.65
7/5/2018 10:00 AM 80 73 1.29 0 1.03
7/5/2018 11:00 AM 82 64 1.63 0 1.03
7/5/2018 12:00 PM 85 60 2.36 0.01 1.56
7/5/2018 1:00 PM 86 56 2.57 0 1.61
7/5/2018 2:00 PM 89 47 2 0 1.38
7/5/2018 3:00 PM 90 43 3.09 0 1.95
7/5/2018 4:00 PM 92 39 2.34 0 1.82
7/5/2018 5:00 PM 92 37 2.41 0 1.52
7/5/2018 6:00 PM 92 35 1.82 0 1.45
7/5/2018 7:00 PM 92 33 1.05 0 1.13
7/5/2018 8:00 PM 90 47 0.17 0 0.52
7/5/2018 9:00 PM 85 65 0.03 0 0.02
7/5/2018 10:00 PM 80 71 0 0 0
7/5/2018 11:00 PM 78 72 0 0 0.03
Data Summary 80 68 21.67 0.01 0.76